sensor_id;sensor_type;location;lat;lon;timestamp;pressure;altitude;pressure_sealevel;temperature;humidity
66703;BME280;60933;46.398;-63.798;2024-03-25T00:00:30;102663.06;;;-1.67;86.05
66703;BME280;60933;46.398;-63.798;2024-03-25T00:02:57;102666.31;;;-1.69;86.99
66703;BME280;60933;46.398;-63.798;2024-03-25T00:05:25;102663.25;;;-1.79;88.53
66703;BME280;60933;46.398;-63.798;2024-03-25T00:07:52;102682.09;;;-1.73;88.95
66703;BME280;60933;46.398;-63.798;2024-03-25T00:10:19;102692.06;;;-1.77;89.81
66703;BME280;60933;46.398;-63.798;2024-03-25T00:12:47;102703.75;;;-1.79;90.26
66703;BME280;60933;46.398;-63.798;2024-03-25T00:15:19;102712.13;;;-1.80;90.83
66703;BME280;60933;46.398;-63.798;2024-03-25T00:17:50;102725.38;;;-1.84;88.75
66703;BME280;60933;46.398;-63.798;2024-03-25T00:20:16;102727.75;;;-1.87;84.06
66703;BME280;60933;46.398;-63.798;2024-03-25T00:22:44;102735.34;;;-1.87;80.15
66703;BME280;60933;46.398;-63.798;2024-03-25T00:25:10;102741.97;;;-1.89;78.75
66703;BME280;60933;46.398;-63.798;2024-03-25T00:27:37;102755.25;;;-1.93;74.61
66703;BME280;60933;46.398;-63.798;2024-03-25T00:30:04;102755.13;;;-1.95;71.83
66703;BME280;60933;46.398;-63.798;2024-03-25T00:32:31;102777.75;;;-1.98;66.35
66703;BME280;60933;46.398;-63.798;2024-03-25T00:34:58;102767.44;;;-2.01;65.81
66703;BME280;60933;46.398;-63.798;2024-03-25T00:37:24;102771.63;;;-2.01;62.36
66703;BME280;60933;46.398;-63.798;2024-03-25T00:39:51;102775.50;;;-2.07;62.58
66703;BME280;60933;46.398;-63.798;2024-03-25T00:42:19;102793.22;;;-2.07;63.11
66703;BME280;60933;46.398;-63.798;2024-03-25T00:44:46;102802.50;;;-2.07;63.54
66703;BME280;60933;46.398;-63.798;2024-03-25T00:47:12;102804.81;;;-2.10;63.55
66703;BME280;60933;46.398;-63.798;2024-03-25T00:49:39;102803.00;;;-2.13;64.84
66703;BME280;60933;46.398;-63.798;2024-03-25T00:52:06;102811.00;;;-2.20;66.04
66703;BME280;60933;46.398;-63.798;2024-03-25T00:54:32;102820.13;;;-2.22;67.28
66703;BME280;60933;46.398;-63.798;2024-03-25T00:56:59;102832.78;;;-2.22;67.88
66703;BME280;60933;46.398;-63.798;2024-03-25T00:59:26;102839.44;;;-2.24;67.03
66703;BME280;60933;46.398;-63.798;2024-03-25T01:01:52;102841.00;;;-2.26;66.47
66703;BME280;60933;46.398;-63.798;2024-03-25T01:04:19;102848.38;;;-2.29;66.59
66703;BME280;60933;46.398;-63.798;2024-03-25T01:06:45;102852.50;;;-2.31;66.44
66703;BME280;60933;46.398;-63.798;2024-03-25T01:09:12;102871.75;;;-2.33;67.29
66703;BME280;60933;46.398;-63.798;2024-03-25T01:11:39;102871.53;;;-2.36;67.81
66703;BME280;60933;46.398;-63.798;2024-03-25T01:14:05;102881.56;;;-2.38;67.89
66703;BME280;60933;46.398;-63.798;2024-03-25T01:16:33;102862.34;;;-2.49;66.56
66703;BME280;60933;46.398;-63.798;2024-03-25T01:18:59;102888.09;;;-2.42;66.27
66703;BME280;60933;46.398;-63.798;2024-03-25T01:21:26;102891.31;;;-2.44;66.07
66703;BME280;60933;46.398;-63.798;2024-03-25T01:23:52;102896.16;;;-2.47;66.72
66703;BME280;60933;46.398;-63.798;2024-03-25T01:26:19;102901.91;;;-2.50;66.73
66703;BME280;60933;46.398;-63.798;2024-03-25T01:28:46;102904.34;;;-2.51;65.69
66703;BME280;60933;46.398;-63.798;2024-03-25T01:31:13;102910.94;;;-2.53;64.71
66703;BME280;60933;46.398;-63.798;2024-03-25T01:33:40;102919.22;;;-2.56;63.82
66703;BME280;60933;46.398;-63.798;2024-03-25T01:36:07;102925.16;;;-2.56;63.96
66703;BME280;60933;46.398;-63.798;2024-03-25T01:38:33;102934.97;;;-2.60;62.75
66703;BME280;60933;46.398;-63.798;2024-03-25T01:41:10;102932.56;;;-2.59;61.92
66703;BME280;60933;46.398;-63.798;2024-03-25T01:43:37;102943.34;;;-2.61;60.91
66703;BME280;60933;46.398;-63.798;2024-03-25T01:46:05;102965.13;;;-2.63;60.60
66703;BME280;60933;46.398;-63.798;2024-03-25T01:48:33;102963.38;;;-2.64;60.09
66703;BME280;60933;46.398;-63.798;2024-03-25T01:51:01;102975.16;;;-2.65;59.34
66703;BME280;60933;46.398;-63.798;2024-03-25T01:53:29;102979.31;;;-2.65;59.07
66703;BME280;60933;46.398;-63.798;2024-03-25T01:55:57;102989.34;;;-2.67;58.84
66703;BME280;60933;46.398;-63.798;2024-03-25T01:58:25;102991.78;;;-2.68;59.69
66703;BME280;60933;46.398;-63.798;2024-03-25T02:00:55;103009.34;;;-2.70;58.85
66703;BME280;60933;46.398;-63.798;2024-03-25T02:03:22;103010.03;;;-2.73;59.43
66703;BME280;60933;46.398;-63.798;2024-03-25T02:05:55;103016.63;;;-2.75;59.87
66703;BME280;60933;46.398;-63.798;2024-03-25T02:08:24;103010.59;;;-2.77;59.71
66703;BME280;60933;46.398;-63.798;2024-03-25T02:10:53;103017.97;;;-2.80;60.02
66703;BME280;60933;46.398;-63.798;2024-03-25T02:13:21;103032.94;;;-2.83;60.03
66703;BME280;60933;46.398;-63.798;2024-03-25T02:15:48;103037.97;;;-2.83;60.03
66703;BME280;60933;46.398;-63.798;2024-03-25T02:18:17;103035.81;;;-2.90;60.87
66703;BME280;60933;46.398;-63.798;2024-03-25T02:20:44;103056.25;;;-2.87;60.13
66703;BME280;60933;46.398;-63.798;2024-03-25T02:23:12;103071.19;;;-2.90;60.47
66703;BME280;60933;46.398;-63.798;2024-03-25T02:25:41;103053.38;;;-3.05;59.74
66703;BME280;60933;46.398;-63.798;2024-03-25T02:28:09;103087.72;;;-2.95;60.03
66703;BME280;60933;46.398;-63.798;2024-03-25T02:30:35;103069.97;;;-3.09;59.17
66703;BME280;60933;46.398;-63.798;2024-03-25T02:33:06;103101.78;;;-2.99;58.83
66703;BME280;60933;46.398;-63.798;2024-03-25T02:35:33;103094.97;;;-3.00;58.57
66703;BME280;60933;46.398;-63.798;2024-03-25T02:38:01;103100.72;;;-3.03;58.38
66703;BME280;60933;46.398;-63.798;2024-03-25T02:40:29;103099.72;;;-3.05;58.78
66703;BME280;60933;46.398;-63.798;2024-03-25T02:42:56;103113.13;;;-3.06;58.85
66703;BME280;60933;46.398;-63.798;2024-03-25T02:45:23;103120.50;;;-3.09;58.59
66703;BME280;60933;46.398;-63.798;2024-03-25T02:47:50;103123.69;;;-3.11;58.43
66703;BME280;60933;46.398;-63.798;2024-03-25T02:50:17;103125.31;;;-3.12;57.48
66703;BME280;60933;46.398;-63.798;2024-03-25T02:52:44;103122.72;;;-3.13;58.46
66703;BME280;60933;46.398;-63.798;2024-03-25T02:55:10;103120.94;;;-3.14;57.02
66703;BME280;60933;46.398;-63.798;2024-03-25T02:57:37;103121.81;;;-3.14;56.01
66703;BME280;60933;46.398;-63.798;2024-03-25T03:00:04;103125.13;;;-3.15;54.64
66703;BME280;60933;46.398;-63.798;2024-03-25T03:02:31;103122.72;;;-3.13;54.08
66703;BME280;60933;46.398;-63.798;2024-03-25T03:04:57;103125.13;;;-3.15;54.43
66703;BME280;60933;46.398;-63.798;2024-03-25T03:07:24;103137.53;;;-3.18;54.51
66703;BME280;60933;46.398;-63.798;2024-03-25T03:09:50;103137.44;;;-3.20;54.40
66703;BME280;60933;46.398;-63.798;2024-03-25T03:12:17;103150.94;;;-3.19;53.86
66703;BME280;60933;46.398;-63.798;2024-03-25T03:14:43;103145.13;;;-3.18;53.02
66703;BME280;60933;46.398;-63.798;2024-03-25T03:17:10;103135.88;;;-3.18;52.69
66703;BME280;60933;46.398;-63.798;2024-03-25T03:19:36;103141.06;;;-3.16;53.18
66703;BME280;60933;46.398;-63.798;2024-03-25T03:22:03;103153.56;;;-3.18;53.54
66703;BME280;60933;46.398;-63.798;2024-03-25T03:24:29;103149.94;;;-3.21;52.65
66703;BME280;60933;46.398;-63.798;2024-03-25T03:26:56;103178.06;;;-3.16;52.16
66703;BME280;60933;46.398;-63.798;2024-03-25T03:29:23;103179.81;;;-3.15;52.39
66703;BME280;60933;46.398;-63.798;2024-03-25T03:31:49;103179.72;;;-3.17;52.59
66703;BME280;60933;46.398;-63.798;2024-03-25T03:34:16;103175.44;;;-3.18;53.14
66703;BME280;60933;46.398;-63.798;2024-03-25T03:36:42;103167.84;;;-3.18;52.86
66703;BME280;60933;46.398;-63.798;2024-03-25T03:39:09;103168.63;;;-3.19;52.23
66703;BME280;60933;46.398;-63.798;2024-03-25T03:41:36;103185.44;;;-3.20;53.44
66703;BME280;60933;46.398;-63.798;2024-03-25T03:44:02;103192.13;;;-3.20;52.09
66703;BME280;60933;46.398;-63.798;2024-03-25T03:46:29;103196.22;;;-3.22;51.93
66703;BME280;60933;46.398;-63.798;2024-03-25T03:48:56;103200.94;;;-3.27;52.66
66703;BME280;60933;46.398;-63.798;2024-03-25T03:51:22;103198.50;;;-3.25;52.68
66703;BME280;60933;46.398;-63.798;2024-03-25T03:53:49;103201.69;;;-3.28;53.34
66703;BME280;60933;46.398;-63.798;2024-03-25T03:56:16;103193.88;;;-3.31;52.09
66703;BME280;60933;46.398;-63.798;2024-03-25T03:58:43;103208.19;;;-3.31;51.74
66703;BME280;60933;46.398;-63.798;2024-03-25T04:01:16;103202.91;;;-3.35;52.07
66703;BME280;60933;46.398;-63.798;2024-03-25T04:03:43;103227.38;;;-3.34;52.37
66703;BME280;60933;46.398;-63.798;2024-03-25T04:06:12;103222.66;;;-3.41;52.33
66703;BME280;60933;46.398;-63.798;2024-03-25T04:08:42;103228.72;;;-3.39;52.21
66703;BME280;60933;46.398;-63.798;2024-03-25T04:11:09;103243.09;;;-3.38;52.02
66703;BME280;60933;46.398;-63.798;2024-03-25T04:13:36;103226.72;;;-3.43;51.55
66703;BME280;60933;46.398;-63.798;2024-03-25T04:16:04;103229.47;;;-3.40;51.67
66703;BME280;60933;46.398;-63.798;2024-03-25T04:18:33;103236.06;;;-3.42;51.90
66703;BME280;60933;46.398;-63.798;2024-03-25T04:20:59;103247.91;;;-3.41;51.88
66703;BME280;60933;46.398;-63.798;2024-03-25T04:23:26;103262.06;;;-3.43;51.94
66703;BME280;60933;46.398;-63.798;2024-03-25T04:25:53;103259.34;;;-3.46;51.88
66703;BME280;60933;46.398;-63.798;2024-03-25T04:28:20;103267.03;;;-3.44;51.31
66703;BME280;60933;46.398;-63.798;2024-03-25T04:30:53;103257.34;;;-3.50;51.55
66703;BME280;60933;46.398;-63.798;2024-03-25T04:33:20;103257.34;;;-3.50;51.92
66703;BME280;60933;46.398;-63.798;2024-03-25T04:35:47;103251.19;;;-3.54;51.97
66703;BME280;60933;46.398;-63.798;2024-03-25T04:38:16;103251.09;;;-3.55;52.81
66703;BME280;60933;46.398;-63.798;2024-03-25T04:40:43;103260.19;;;-3.57;52.52
66703;BME280;60933;46.398;-63.798;2024-03-25T04:43:10;103273.47;;;-3.60;52.63
66703;BME280;60933;46.398;-63.798;2024-03-25T04:45:36;103276.66;;;-3.62;52.64
66703;BME280;60933;46.398;-63.798;2024-03-25T04:48:03;103287.28;;;-3.67;53.66
66703;BME280;60933;46.398;-63.798;2024-03-25T04:50:30;103306.50;;;-3.69;53.69
66703;BME280;60933;46.398;-63.798;2024-03-25T04:52:57;103299.69;;;-3.70;52.86
66703;BME280;60933;46.398;-63.798;2024-03-25T04:55:23;103292.88;;;-3.71;53.29
66703;BME280;60933;46.398;-63.798;2024-03-25T04:57:50;103283.53;;;-3.72;53.79
66703;BME280;60933;46.398;-63.798;2024-03-25T05:00:17;103291.66;;;-3.76;54.19
66703;BME280;60933;46.398;-63.798;2024-03-25T05:02:44;103296.56;;;-3.77;53.84
66703;BME280;60933;46.398;-63.798;2024-03-25T05:05:10;103296.97;;;-3.83;54.66
66703;BME280;60933;46.398;-63.798;2024-03-25T05:07:37;103309.72;;;-3.82;54.59
66703;BME280;60933;46.398;-63.798;2024-03-25T05:10:04;103320.59;;;-3.83;54.54
66703;BME280;60933;46.398;-63.798;2024-03-25T05:12:30;103312.00;;;-3.85;55.06
66703;BME280;60933;46.398;-63.798;2024-03-25T05:14:57;103325.53;;;-3.84;53.73
66703;BME280;60933;46.398;-63.798;2024-03-25T05:17:23;103313.03;;;-3.83;54.87
66703;BME280;60933;46.398;-63.798;2024-03-25T05:19:50;103317.97;;;-3.84;56.25
66703;BME280;60933;46.398;-63.798;2024-03-25T05:22:17;103311.66;;;-3.89;56.81
66703;BME280;60933;46.398;-63.798;2024-03-25T05:24:43;103327.06;;;-3.86;56.67
66703;BME280;60933;46.398;-63.798;2024-03-25T05:27:10;103316.72;;;-3.89;56.36
66703;BME280;60933;46.398;-63.798;2024-03-25T05:29:37;103321.53;;;-3.92;56.31
66703;BME280;60933;46.398;-63.798;2024-03-25T05:32:04;103331.63;;;-3.92;56.54
66703;BME280;60933;46.398;-63.798;2024-03-25T05:34:31;103325.47;;;-3.96;56.43
66703;BME280;60933;46.398;-63.798;2024-03-25T05:36:57;103328.22;;;-3.93;56.66
66703;BME280;60933;46.398;-63.798;2024-03-25T05:39:24;103333.25;;;-3.93;57.33
66703;BME280;60933;46.398;-63.798;2024-03-25T05:41:51;103332.91;;;-3.98;56.54
66703;BME280;60933;46.398;-63.798;2024-03-25T05:44:17;103349.16;;;-3.94;57.02
66703;BME280;60933;46.398;-63.798;2024-03-25T05:46:44;103351.56;;;-3.95;57.38
66703;BME280;60933;46.398;-63.798;2024-03-25T05:49:10;103354.84;;;-3.97;57.11
66703;BME280;60933;46.398;-63.798;2024-03-25T05:51:37;103340.47;;;-3.98;57.66
66703;BME280;60933;46.398;-63.798;2024-03-25T05:54:03;103337.94;;;-3.98;57.82
66703;BME280;60933;46.398;-63.798;2024-03-25T05:56:31;103338.97;;;-3.95;58.17
66703;BME280;60933;46.398;-63.798;2024-03-25T05:58:58;103334.03;;;-3.94;58.24
66703;BME280;60933;46.398;-63.798;2024-03-25T06:01:25;103343.00;;;-3.98;58.19
66703;BME280;60933;46.398;-63.798;2024-03-25T06:03:51;103344.13;;;-3.94;59.11
66703;BME280;60933;46.398;-63.798;2024-03-25T06:06:18;103353.34;;;-3.94;59.46
66703;BME280;60933;46.398;-63.798;2024-03-25T06:08:45;103347.28;;;-3.97;59.84
66703;BME280;60933;46.398;-63.798;2024-03-25T06:11:11;103353.09;;;-3.98;59.79
66703;BME280;60933;46.398;-63.798;2024-03-25T06:13:38;103340.47;;;-3.98;60.25
66703;BME280;60933;46.398;-63.798;2024-03-25T06:16:05;103339.72;;;-3.97;61.16
66703;BME280;60933;46.398;-63.798;2024-03-25T06:18:31;103345.53;;;-3.98;62.04
66703;BME280;60933;46.398;-63.798;2024-03-25T06:20:58;103350.56;;;-3.98;62.67
66703;BME280;60933;46.398;-63.798;2024-03-25T06:23:28;103360.66;;;-3.98;63.27
66703;BME280;60933;46.398;-63.798;2024-03-25T06:25:55;103366.25;;;-4.02;63.65
66703;BME280;60933;46.398;-63.798;2024-03-25T06:28:22;103365.13;;;-4.05;63.58
66703;BME280;60933;46.398;-63.798;2024-03-25T06:30:50;103367.53;;;-4.07;64.17
66703;BME280;60933;46.398;-63.798;2024-03-25T06:33:35;103358.22;;;-4.08;64.88
66703;BME280;60933;46.398;-63.798;2024-03-25T06:36:21;103352.16;;;-4.10;64.66
66703;BME280;60933;46.398;-63.798;2024-03-25T06:38:48;103361.25;;;-4.12;65.19
66703;BME280;60933;46.398;-63.798;2024-03-25T06:41:15;103361.88;;;-4.15;64.37
66703;BME280;60933;46.398;-63.798;2024-03-25T06:43:41;103367.47;;;-4.19;64.75
66703;BME280;60933;46.398;-63.798;2024-03-25T06:46:08;103366.34;;;-4.22;64.61
66703;BME280;60933;46.398;-63.798;2024-03-25T06:48:35;103372.66;;;-4.27;64.31
66703;BME280;60933;46.398;-63.798;2024-03-25T06:51:02;103368.25;;;-4.30;64.71
66703;BME280;60933;46.398;-63.798;2024-03-25T06:53:29;103375.72;;;-4.32;66.27
66703;BME280;60933;46.398;-63.798;2024-03-25T06:55:58;103380.50;;;-4.35;65.80
66703;BME280;60933;46.398;-63.798;2024-03-25T06:58:26;103387.09;;;-4.37;66.14
66703;BME280;60933;46.398;-63.798;2024-03-25T07:00:55;103390.88;;;-4.42;65.73
66703;BME280;60933;46.398;-63.798;2024-03-25T07:03:23;103394.66;;;-4.47;66.96
66703;BME280;60933;46.398;-63.798;2024-03-25T07:05:51;103378.41;;;-4.51;68.30
66703;BME280;60933;46.398;-63.798;2024-03-25T07:08:25;103375.78;;;-4.52;70.97
66703;BME280;60933;46.398;-63.798;2024-03-25T07:10:53;103389.25;;;-4.52;72.73
66703;BME280;60933;46.398;-63.798;2024-03-25T07:13:20;103393.53;;;-4.51;73.74
66703;BME280;60933;46.398;-63.798;2024-03-25T07:15:47;103395.06;;;-4.53;75.00
66703;BME280;60933;46.398;-63.798;2024-03-25T07:18:13;103389.91;;;-4.54;74.91
66703;BME280;60933;46.398;-63.798;2024-03-25T07:20:40;103381.31;;;-4.56;75.88
66703;BME280;60933;46.398;-63.798;2024-03-25T07:23:07;103369.59;;;-4.56;77.23
66703;BME280;60933;46.398;-63.798;2024-03-25T07:25:34;103369.97;;;-4.51;78.53
66703;BME280;60933;46.398;-63.798;2024-03-25T07:28:02;103369.19;;;-4.50;79.08
66703;BME280;60933;46.398;-63.798;2024-03-25T07:30:30;103389.38;;;-4.50;78.09
66703;BME280;60933;46.398;-63.798;2024-03-25T07:32:57;103377.28;;;-4.54;77.97
66703;BME280;60933;46.398;-63.798;2024-03-25T07:35:24;103376.66;;;-4.52;77.69
66703;BME280;60933;46.398;-63.798;2024-03-25T07:37:51;103362.28;;;-4.53;77.77
66703;BME280;60933;46.398;-63.798;2024-03-25T07:40:19;103372.47;;;-4.51;78.65
66703;BME280;60933;46.398;-63.798;2024-03-25T07:42:45;103384.31;;;-4.50;79.52
66703;BME280;60933;46.398;-63.798;2024-03-25T07:45:12;103378.53;;;-4.49;79.24
66703;BME280;60933;46.398;-63.798;2024-03-25T07:47:39;103387.59;;;-4.51;80.44
66703;BME280;60933;46.398;-63.798;2024-03-25T07:50:06;103390.13;;;-4.51;81.55
66703;BME280;60933;46.398;-63.798;2024-03-25T07:52:34;103375.00;;;-4.51;82.89
66703;BME280;60933;46.398;-63.798;2024-03-25T07:55:07;103375.91;;;-4.51;85.11
66703;BME280;60933;46.398;-63.798;2024-03-25T07:57:33;103381.81;;;-4.50;86.09
66703;BME280;60933;46.398;-63.798;2024-03-25T08:00:00;103403.25;;;-4.45;85.02
66703;BME280;60933;46.398;-63.798;2024-03-25T08:02:27;103410.03;;;-4.44;84.02
66703;BME280;60933;46.398;-63.798;2024-03-25T08:04:53;103418.22;;;-4.47;82.70
66703;BME280;60933;46.398;-63.798;2024-03-25T08:07:19;103425.78;;;-4.47;80.63
66703;BME280;60933;46.398;-63.798;2024-03-25T08:09:46;103408.69;;;-4.51;83.41
66703;BME280;60933;46.398;-63.798;2024-03-25T08:12:13;103393.94;;;-4.56;85.27
66703;BME280;60933;46.398;-63.798;2024-03-25T08:14:39;103407.66;;;-4.53;86.33
66703;BME280;60933;46.398;-63.798;2024-03-25T08:17:05;103422.69;;;-4.54;87.79
66703;BME280;60933;46.398;-63.798;2024-03-25T08:19:32;103413.34;;;-4.55;89.02
66703;BME280;60933;46.398;-63.798;2024-03-25T08:21:58;103425.94;;;-4.55;89.83
66703;BME280;60933;46.398;-63.798;2024-03-25T08:24:25;103427.72;;;-4.54;89.54
66703;BME280;60933;46.398;-63.798;2024-03-25T08:26:51;103426.22;;;-4.52;90.56
66703;BME280;60933;46.398;-63.798;2024-03-25T08:29:18;103426.44;;;-4.49;92.14
66703;BME280;60933;46.398;-63.798;2024-03-25T08:31:44;103430.63;;;-4.50;92.09
66703;BME280;60933;46.398;-63.798;2024-03-25T08:34:11;103438.19;;;-4.50;91.71
66703;BME280;60933;46.398;-63.798;2024-03-25T08:36:38;103436.53;;;-4.49;92.24
66703;BME280;60933;46.398;-63.798;2024-03-25T08:39:04;103428.19;;;-4.48;93.22
66703;BME280;60933;46.398;-63.798;2024-03-25T08:41:31;103423.41;;;-4.45;94.84
66703;BME280;60933;46.398;-63.798;2024-03-25T08:44:01;103439.69;;;-4.41;96.53
66703;BME280;60933;46.398;-63.798;2024-03-25T08:46:27;103450.88;;;-4.38;96.01
66703;BME280;60933;46.398;-63.798;2024-03-25T08:48:54;103468.53;;;-4.38;95.74
66703;BME280;60933;46.398;-63.798;2024-03-25T08:51:20;103475.84;;;-4.41;92.75
66703;BME280;60933;46.398;-63.798;2024-03-25T08:53:47;103475.59;;;-4.44;91.38
66703;BME280;60933;46.398;-63.798;2024-03-25T08:56:13;103475.34;;;-4.47;92.97
66703;BME280;60933;46.398;-63.798;2024-03-25T08:58:40;103485.31;;;-4.49;95.61
66703;BME280;60933;46.398;-63.798;2024-03-25T09:01:06;103484.31;;;-4.51;95.37
66703;BME280;60933;46.398;-63.798;2024-03-25T09:03:35;103501.84;;;-4.52;94.23
66703;BME280;60933;46.398;-63.798;2024-03-25T09:06:01;103500.94;;;-4.53;97.05
66703;BME280;60933;46.398;-63.798;2024-03-25T09:08:28;103510.41;;;-4.50;98.38
66703;BME280;60933;46.398;-63.798;2024-03-25T09:10:54;103502.09;;;-4.49;99.64
66703;BME280;60933;46.398;-63.798;2024-03-25T09:13:33;103507.25;;;-4.48;100.00
66703;BME280;60933;46.398;-63.798;2024-03-25T09:15:59;103514.94;;;-4.46;98.23
66703;BME280;60933;46.398;-63.798;2024-03-25T09:18:26;103529.94;;;-4.48;98.30
66703;BME280;60933;46.398;-63.798;2024-03-25T09:20:53;103539.91;;;-4.49;96.50
66703;BME280;60933;46.398;-63.798;2024-03-25T09:23:19;103545.47;;;-4.53;98.25
66703;BME280;60933;46.398;-63.798;2024-03-25T09:25:53;103541.94;;;-4.55;99.77
66703;BME280;60933;46.398;-63.798;2024-03-25T09:28:20;103536.75;;;-4.57;100.00
66703;BME280;60933;46.398;-63.798;2024-03-25T09:30:48;103556.16;;;-4.56;100.00
66703;BME280;60933;46.398;-63.798;2024-03-25T09:33:15;103562.72;;;-4.58;99.25
66703;BME280;60933;46.398;-63.798;2024-03-25T09:35:42;103562.34;;;-4.63;100.00
66703;BME280;60933;46.398;-63.798;2024-03-25T09:38:09;103555.66;;;-4.62;100.00
66703;BME280;60933;46.398;-63.798;2024-03-25T09:40:36;103556.56;;;-4.62;100.00
66703;BME280;60933;46.398;-63.798;2024-03-25T09:43:12;103575.97;;;-4.61;100.00
66703;BME280;60933;46.398;-63.798;2024-03-25T09:45:40;103588.56;;;-4.61;100.00
66703;BME280;60933;46.398;-63.798;2024-03-25T09:48:07;103584.75;;;-4.66;100.00
66703;BME280;60933;46.398;-63.798;2024-03-25T09:50:34;103579.88;;;-4.64;100.00
66703;BME280;60933;46.398;-63.798;2024-03-25T09:53:01;103566.88;;;-4.58;100.00
66703;BME280;60933;46.398;-63.798;2024-03-25T09:55:28;103584.91;;;-4.54;100.00
66703;BME280;60933;46.398;-63.798;2024-03-25T09:57:55;103608.72;;;-4.50;100.00
66703;BME280;60933;46.398;-63.798;2024-03-25T10:00:23;103611.25;;;-4.50;100.00
66703;BME280;60933;46.398;-63.798;2024-03-25T10:02:50;103603.06;;;-4.48;100.00
66703;BME280;60933;46.398;-63.798;2024-03-25T10:05:16;103594.09;;;-4.44;100.00
66703;BME280;60933;46.398;-63.798;2024-03-25T10:07:43;103606.22;;;-4.40;100.00
66703;BME280;60933;46.398;-63.798;2024-03-25T10:10:10;103615.81;;;-4.36;100.00
66703;BME280;60933;46.398;-63.798;2024-03-25T10:12:37;103616.59;;;-4.37;100.00
66703;BME280;60933;46.398;-63.798;2024-03-25T10:15:04;103616.19;;;-4.31;100.00
66703;BME280;60933;46.398;-63.798;2024-03-25T10:17:31;103623.91;;;-4.30;100.00
66703;BME280;60933;46.398;-63.798;2024-03-25T10:19:58;103634.97;;;-4.27;100.00
66703;BME280;60933;46.398;-63.798;2024-03-25T10:22:24;103642.69;;;-4.26;100.00
66703;BME280;60933;46.398;-63.798;2024-03-25T10:24:51;103642.69;;;-4.26;100.00
66703;BME280;60933;46.398;-63.798;2024-03-25T10:27:22;103637.75;;;-4.24;100.00
66703;BME280;60933;46.398;-63.798;2024-03-25T10:29:53;103631.06;;;-4.24;100.00
66703;BME280;60933;46.398;-63.798;2024-03-25T10:32:21;103635.47;;;-4.21;100.00
66703;BME280;60933;46.398;-63.798;2024-03-25T10:34:51;103637.50;;;-4.17;100.00
66703;BME280;60933;46.398;-63.798;2024-03-25T10:37:18;103636.00;;;-4.15;100.00
66703;BME280;60933;46.398;-63.798;2024-03-25T10:39:49;103642.19;;;-4.11;100.00
66703;BME280;60933;46.398;-63.798;2024-03-25T10:42:20;103650.13;;;-4.07;100.00
66703;BME280;60933;46.398;-63.798;2024-03-25T10:44:47;103660.47;;;-4.04;100.00
66703;BME280;60933;46.398;-63.798;2024-03-25T10:47:20;103651.38;;;-4.02;100.00
66703;BME280;60933;46.398;-63.798;2024-03-25T10:49:58;103653.38;;;-3.98;100.00
66703;BME280;60933;46.398;-63.798;2024-03-25T10:52:29;103673.97;;;-3.93;100.00
66703;BME280;60933;46.398;-63.798;2024-03-25T10:54:57;103684.44;;;-3.88;100.00
66703;BME280;60933;46.398;-63.798;2024-03-25T10:57:24;103689.00;;;-3.84;100.00
66703;BME280;60933;46.398;-63.798;2024-03-25T10:59:52;103672.56;;;-3.79;100.00
66703;BME280;60933;46.398;-63.798;2024-03-25T11:02:20;103667.78;;;-3.76;100.00
66703;BME280;60933;46.398;-63.798;2024-03-25T11:04:47;103702.34;;;-3.64;100.00
66703;BME280;60933;46.398;-63.798;2024-03-25T11:07:15;103702.72;;;-3.60;100.00
66703;BME280;60933;46.398;-63.798;2024-03-25T11:09:42;103690.47;;;-3.55;100.00
66703;BME280;60933;46.398;-63.798;2024-03-25T11:12:12;103665.34;;;-3.54;100.00
66703;BME280;60933;46.398;-63.798;2024-03-25T11:14:39;103692.22;;;-3.44;100.00
66703;BME280;60933;46.398;-63.798;2024-03-25T11:17:17;103716.22;;;-3.39;100.00
66703;BME280;60933;46.398;-63.798;2024-03-25T11:19:43;103709.34;;;-3.29;100.00
66703;BME280;60933;46.398;-63.798;2024-03-25T11:22:10;103705.56;;;-3.24;100.00
66703;BME280;60933;46.398;-63.798;2024-03-25T11:24:38;103706.81;;;-3.19;98.90
66703;BME280;60933;46.398;-63.798;2024-03-25T11:27:09;103728.53;;;-3.11;99.03
66703;BME280;60933;46.398;-63.798;2024-03-25T11:29:36;103716.91;;;-3.09;98.07
66703;BME280;60933;46.398;-63.798;2024-03-25T11:32:05;103710.06;;;-2.99;97.59
66703;BME280;60933;46.398;-63.798;2024-03-25T11:34:32;103709.63;;;-2.94;97.83
66703;BME280;60933;46.398;-63.798;2024-03-25T11:36:59;103726.69;;;-2.91;96.84
66703;BME280;60933;46.398;-63.798;2024-03-25T11:39:25;103732.94;;;-2.76;96.45
66703;BME280;60933;46.398;-63.798;2024-03-25T11:41:53;103718.25;;;-2.69;95.62
66703;BME280;60933;46.398;-63.798;2024-03-25T11:44:19;103719.38;;;-2.66;95.59
66703;BME280;60933;46.398;-63.798;2024-03-25T11:46:50;103722.50;;;-2.58;94.85
66703;BME280;60933;46.398;-63.798;2024-03-25T11:49:21;103737.09;;;-2.44;94.82
66703;BME280;60933;46.398;-63.798;2024-03-25T11:51:47;103723.16;;;-2.39;94.89
66703;BME280;60933;46.398;-63.798;2024-03-25T11:54:14;103727.69;;;-2.34;93.99
66703;BME280;60933;46.398;-63.798;2024-03-25T11:56:42;103738.50;;;-2.25;93.15
66703;BME280;60933;46.398;-63.798;2024-03-25T11:59:09;103751.09;;;-2.15;93.46
66703;BME280;60933;46.398;-63.798;2024-03-25T12:01:38;103754.44;;;-2.04;93.15
66703;BME280;60933;46.398;-63.798;2024-03-25T12:04:15;103750.72;;;-1.97;91.58
66703;BME280;60933;46.398;-63.798;2024-03-25T12:06:42;103748.63;;;-1.91;91.53
66703;BME280;60933;46.398;-63.798;2024-03-25T12:09:10;103748.13;;;-1.87;89.43
66703;BME280;60933;46.398;-63.798;2024-03-25T12:11:55;103741.97;;;-1.79;89.48
66703;BME280;60933;46.398;-63.798;2024-03-25T12:14:22;103737.13;;;-1.76;87.07
66703;BME280;60933;46.398;-63.798;2024-03-25T12:16:50;103732.63;;;-1.68;86.45
66703;BME280;60933;46.398;-63.798;2024-03-25T12:19:20;103748.19;;;-1.63;84.59
66703;BME280;60933;46.398;-63.798;2024-03-25T12:21:47;103755.81;;;-1.51;86.49
66703;BME280;60933;46.398;-63.798;2024-03-25T12:24:14;103765.28;;;-1.49;81.70
66703;BME280;60933;46.398;-63.798;2024-03-25T12:26:40;103770.44;;;-1.47;78.63
66703;BME280;60933;46.398;-63.798;2024-03-25T12:29:07;103760.56;;;-1.44;77.01